Time;durP1;ratioP1;P1;durP2;ratioP2;P2;SDS_P1;SDS_P2;PMS_P1;PMS_P2;Temp;Humidity;BMP_temperature;BMP_pressure;BME280_temperature;BME280_humidity;BME280_pressure;Samples;Min_cycle;Max_cycle;Signal;HPM_P1;HPM_P2
2021/07/05 00:01:17;;;;;;;14.77;13.27;;;;;;;19.08;84.60;100129.75;3573643;40;20120;-52
2021/07/05 00:03:45;;;;;;;16.10;13.68;;;;;;;18.71;87.84;100116.56;3573593;40;20119;-45
2021/07/05 00:06:12;;;;;;;15.35;13.75;;;;;;;18.48;88.67;100118.66;3573652;40;20104;-48
2021/07/05 00:08:39;;;;;;;16.17;14.43;;;;;;;18.44;87.31;100114.38;3573581;40;20105;-54
2021/07/05 00:11:11;;;;;;;15.02;13.73;;;;;;;18.45;88.25;100121.31;3573792;40;20048;-47
2021/07/05 00:13:41;;;;;;;15.20;13.75;;;;;;;18.34;88.32;100124.03;3573579;40;20279;-52
2021/07/05 00:16:09;;;;;;;16.48;14.68;;;;;;;18.38;88.09;100120.53;3573569;40;20053;-48
2021/07/05 00:18:36;;;;;;;15.15;13.75;;;;;;;18.45;87.83;100123.91;3573045;40;20081;-45
2021/07/05 00:21:03;;;;;;;16.98;14.43;;;;;;;18.33;87.98;100119.75;3573322;40;20391;-50
2021/07/05 00:23:30;;;;;;;15.85;13.98;;;;;;;18.52;87.54;100112.53;3573764;40;20188;-54
2021/07/05 00:25:57;;;;;;;15.75;13.85;;;;;;;18.44;87.62;100117.84;3574289;40;20053;-46
2021/07/05 00:28:24;;;;;;;16.42;14.85;;;;;;;18.23;89.10;100118.19;3573747;40;20069;-48
2021/07/05 00:30:51;;;;;;;15.82;14.32;;;;;;;18.21;89.96;100122.50;3573289;40;20094;-49
2021/07/05 00:33:18;;;;;;;16.33;14.80;;;;;;;18.23;90.99;100125.94;3573281;40;20049;-47
2021/07/05 00:35:46;;;;;;;15.75;14.30;;;;;;;18.17;89.58;100121.72;3573496;40;20056;-48
2021/07/05 00:38:14;;;;;;;15.48;14.02;;;;;;;18.44;88.72;100117.84;3573260;40;20059;-52
2021/07/05 00:40:41;;;;;;;15.57;14.05;;;;;;;18.27;89.22;100117.25;3573262;40;20060;-47
2021/07/05 00:43:09;;;;;;;15.45;13.90;;;;;;;18.31;87.52;100117.19;3573533;40;20096;-47
2021/07/05 00:45:36;;;;;;;16.08;14.48;;;;;;;18.24;88.30;100118.16;3573225;40;20240;-47
2021/07/05 00:48:04;;;;;;;15.90;14.32;;;;;;;18.15;89.28;100105.31;3573622;40;20081;-48
2021/07/05 00:50:32;;;;;;;15.88;14.45;;;;;;;18.15;89.06;100107.06;3573938;40;20063;-48
2021/07/05 00:53:02;;;;;;;16.45;14.80;;;;;;;18.12;89.34;100109.69;3573376;40;20063;-46
2021/07/05 00:55:32;;;;;;;16.05;14.55;;;;;;;17.97;90.44;100110.75;3573680;40;20101;-51
2021/07/05 00:58:00;;;;;;;16.33;14.68;;;;;;;18.02;90.21;100108.97;3573388;40;20411;-46
2021/07/05 01:00:28;;;;;;;17.65;15.98;;;;;;;17.92;91.71;100103.06;3573529;40;20101;-50
2021/07/05 01:02:55;;;;;;;16.45;14.93;;;;;;;17.82;92.89;100109.25;3573563;40;20055;-46
2021/07/05 01:05:23;;;;;;;16.75;15.15;;;;;;;17.77;93.02;100108.44;3573459;40;20048;-52
2021/07/05 01:07:51;;;;;;;16.77;15.00;;;;;;;17.68;94.23;100111.13;3573133;40;20085;-52
2021/07/05 01:10:20;;;;;;;17.67;15.80;;;;;;;17.52;95.82;100107.88;3573108;40;20104;-49
2021/07/05 01:12:49;;;;;;;18.10;16.30;;;;;;;17.51;96.17;100107.00;3572993;40;20105;-47
2021/07/05 01:15:19;;;;;;;18.10;16.35;;;;;;;17.50;96.56;100107.88;3573067;40;20065;-51
2021/07/05 01:17:47;;;;;;;17.92;16.35;;;;;;;17.41;97.70;100104.56;3573249;40;20094;-49
2021/07/05 01:20:17;;;;;;;18.60;16.25;;;;;;;17.38;98.80;100095.09;3573019;40;20127;-46
2021/07/05 01:22:44;;;;;;;19.25;17.30;;;;;;;17.38;99.64;100095.09;3572996;40;20065;-52
2021/07/05 01:25:20;;;;;;;20.13;17.75;;;;;;;17.30;100.00;100090.00;3573191;40;20056;-46
2021/07/05 01:27:48;;;;;;;19.55;17.48;;;;;;;17.27;100.00;100086.59;3573254;40;20078;-48
2021/07/05 01:30:17;;;;;;;19.52;17.50;;;;;;;17.21;100.00;100082.34;3572874;40;20323;-47
2021/07/05 01:32:45;;;;;;;18.88;17.08;;;;;;;17.33;100.00;100088.25;3574328;40;20147;-51
2021/07/05 01:35:14;;;;;;;18.10;16.30;;;;;;;17.35;99.66;100087.38;3574907;40;20072;-50
2021/07/05 01:37:42;;;;;;;16.67;15.20;;;;;;;17.52;98.98;100093.19;3574626;40;20075;-45
2021/07/05 01:40:19;;;;;;;17.88;16.15;;;;;;;18.01;95.63;100095.16;3574711;40;20104;-48
2021/07/05 01:42:59;;;;;;;17.80;16.00;;;;;;;17.83;96.60;100094.56;3574456;40;20063;-49
2021/07/05 01:45:29;;;;;;;18.33;16.42;;;;;;;17.30;98.46;100091.75;3574949;40;20085;-53
2021/07/05 01:47:58;;;;;;;19.42;17.55;;;;;;;17.12;100.00;100085.03;3574839;40;20186;-50
2021/07/05 01:50:26;;;;;;;19.05;17.25;;;;;;;17.13;100.00;100091.06;3574498;40;20049;-52
2021/07/05 01:52:53;;;;;;;19.05;17.17;;;;;;;17.01;100.00;100080.00;3574493;40;20068;-47
2021/07/05 01:55:30;;;;;;;19.58;17.58;;;;;;;17.02;100.00;100086.00;3574559;40;20084;-52
2021/07/05 01:57:59;;;;;;;19.67;17.80;;;;;;;16.92;100.00;100079.22;3574593;40;20143;-49
2021/07/05 02:00:27;;;;;;;18.25;16.42;;;;;;;17.00;100.00;100075.66;3574677;40;20430;-52
2021/07/05 02:02:55;;;;;;;19.25;17.45;;;;;;;16.88;100.00;100077.53;3574517;40;20071;-51
2021/07/05 02:05:22;;;;;;;20.75;18.65;;;;;;;16.84;100.00;100074.13;3574709;40;20084;-48
2021/07/05 02:07:50;;;;;;;20.38;18.40;;;;;;;16.74;100.00;100078.53;3574290;40;20323;-47
2021/07/05 02:10:22;;;;;;;20.65;18.58;;;;;;;16.75;100.00;100074.22;3574501;40;20132;-48
2021/07/05 02:12:49;;;;;;;19.98;17.88;;;;;;;16.67;100.00;100081.16;3574299;40;20352;-54
2021/07/05 02:15:17;;;;;;;20.45;18.50;;;;;;;16.64;100.00;100082.03;3574244;40;20497;-49
2021/07/05 02:17:44;;;;;;;21.10;19.08;;;;;;;16.66;100.00;100074.25;3574271;40;20372;-49
2021/07/05 02:20:18;;;;;;;20.85;18.85;;;;;;;16.70;100.00;100078.53;3573972;40;20422;-52
2021/07/05 02:22:46;;;;;;;22.60;20.40;;;;;;;16.64;100.00;100082.03;3574742;40;20417;-47
2021/07/05 02:25:14;;;;;;;21.63;19.52;;;;;;;16.65;100.00;100070.81;3581150;39;20108;-52
2021/07/05 02:27:42;;;;;;;23.45;21.08;;;;;;;16.55;100.00;100076.94;3584344;39;20057;-48
2021/07/05 02:30:14;;;;;;;24.83;22.05;;;;;;;16.48;100.00;100076.13;3584576;39;20092;-50
2021/07/05 02:32:41;;;;;;;25.50;21.27;;;;;;;16.46;100.00;100077.88;3584572;39;20139;-48
2021/07/05 02:35:12;;;;;;;23.27;19.65;;;;;;;16.59;100.00;100085.50;3584502;39;20134;-50
2021/07/05 02:37:41;;;;;;;22.60;20.30;;;;;;;16.67;100.00;100082.00;3584172;39;20093;-48
2021/07/05 02:40:12;;;;;;;24.77;21.95;;;;;;;16.48;100.00;100081.31;3584095;39;20084;-54
2021/07/05 02:42:39;;;;;;;23.42;21.13;;;;;;;16.51;100.00;100081.28;3584061;39;20040;-50
2021/07/05 02:45:10;;;;;;;22.38;20.10;;;;;;;16.77;100.00;100082.78;3584069;39;20063;-52
2021/07/05 02:47:38;;;;;;;23.65;21.23;;;;;;;16.76;100.00;100075.91;3584562;39;20056;-51
2021/07/05 02:50:07;;;;;;;22.10;19.98;;;;;;;16.68;100.00;100075.09;3584078;39;20426;-52
2021/07/05 02:52:34;;;;;;;22.98;20.77;;;;;;;16.92;100.00;100077.50;3584184;39;20076;-49
2021/07/05 02:55:01;;;;;;;21.80;19.58;;;;;;;17.17;100.00;100082.41;3584184;39;20044;-47
2021/07/05 02:57:31;;;;;;;22.08;19.90;;;;;;;16.90;100.00;100096.47;3584319;39;20064;-50
2021/07/05 03:00:01;;;;;;;23.30;21.02;;;;;;;16.94;100.00;100088.66;3584345;39;20432;-53
2021/07/05 03:02:30;;;;;;;22.50;20.35;;;;;;;17.26;100.00;100105.59;3584326;39;20072;-50
2021/07/05 03:05:00;;;;;;;24.25;21.63;;;;;;;16.95;100.00;100110.22;3584679;39;20044;-54
2021/07/05 03:07:28;;;;;;;24.05;21.58;;;;;;;17.22;100.00;100104.75;3584502;39;20072;-51
2021/07/05 03:09:55;;;;;;;23.08;20.85;;;;;;;17.45;99.56;100112.25;3584137;39;20084;-53
2021/07/05 03:12:22;;;;;;;23.25;20.92;;;;;;;17.47;99.08;100118.28;3584226;39;20127;-47
2021/07/05 03:14:49;;;;;;;22.63;20.33;;;;;;;17.48;99.23;100113.97;3584117;39;20068;-47
2021/07/05 03:17:16;;;;;;;23.02;20.63;;;;;;;17.17;100.00;100116.03;3584038;39;20060;-49
2021/07/05 03:19:44;;;;;;;22.95;20.52;;;;;;;17.05;100.00;100117.00;3584273;39;20056;-53
2021/07/05 03:22:13;;;;;;;23.90;21.58;;;;;;;16.83;100.00;100115.53;3584181;39;20077;-53
2021/07/05 03:24:41;;;;;;;23.20;20.88;;;;;;;16.74;100.00;100113.88;3584233;39;20096;-52
2021/07/05 03:27:09;;;;;;;23.42;21.13;;;;;;;17.24;100.00;100109.91;3584263;39;20085;-49
2021/07/05 03:29:37;;;;;;;25.98;22.08;;;;;;;16.86;100.00;100111.16;3584299;39;20676;-51
2021/07/05 03:32:06;;;;;;;28.13;20.92;;;;;;;16.70;100.00;100109.56;3584129;39;20358;-49
2021/07/05 03:34:33;;;;;;;23.83;21.08;;;;;;;16.64;100.00;100104.44;3583902;39;20048;-52
2021/07/05 03:37:00;;;;;;;22.42;20.08;;;;;;;16.78;100.00;100105.22;3583973;39;20062;-47
2021/07/05 03:39:27;;;;;;;21.65;19.33;;;;;;;17.28;100.00;100115.03;3583928;39;20575;-48
2021/07/05 03:41:55;;;;;;;23.25;21.00;;;;;;;17.42;100.00;100109.69;3584012;39;20056;-47
2021/07/05 03:44:22;;;;;;;22.35;20.05;;;;;;;17.05;100.00;100110.13;3583856;39;20104;-51
2021/07/05 03:46:49;;;;;;;22.25;20.15;;;;;;;17.73;99.83;100114.50;3583961;39;20063;-53
2021/07/05 03:49:16;;;;;;;21.05;19.05;;;;;;;17.48;100.00;100119.16;3583824;39;20044;-51
2021/07/05 03:51:43;;;;;;;22.08;19.80;;;;;;;17.32;100.00;100113.28;3583689;39;20060;-51
2021/07/05 03:54:10;;;;;;;22.63;20.52;;;;;;;17.01;100.00;100118.78;3583111;39;20063;-49
2021/07/05 03:56:37;;;;;;;22.88;20.60;;;;;;;16.77;100.00;100111.25;3583996;39;20061;-49
2021/07/05 03:59:06;;;;;;;21.75;19.75;;;;;;;16.95;100.00;100121.41;3583646;39;20096;-49
2021/07/05 04:01:33;;;;;;;22.65;20.45;;;;;;;16.93;100.00;100115.41;3583870;39;20048;-50
2021/07/05 04:04:00;;;;;;;22.65;20.35;;;;;;;17.17;100.00;100119.47;3583759;39;20309;-51
2021/07/05 04:06:28;;;;;;;22.15;19.85;;;;;;;17.47;100.00;100115.72;3583949;39;20112;-48
2021/07/05 04:08:57;;;;;;;22.17;20.13;;;;;;;17.39;100.00;100119.25;3583361;39;20083;-50
2021/07/05 04:11:24;;;;;;;21.77;19.63;;;;;;;17.96;96.46;100128.03;3584013;39;20082;-47
2021/07/05 04:13:51;;;;;;;22.20;20.00;;;;;;;17.75;97.93;100126.63;3583647;39;20063;-51
2021/07/05 04:16:18;;;;;;;22.33;20.05;;;;;;;17.48;100.00;100122.59;3584108;39;20045;-47
2021/07/05 04:18:46;;;;;;;20.25;18.23;;;;;;;18.09;93.34;100122.72;3583762;39;20053;-51
2021/07/05 04:21:13;;;;;;;19.95;18.05;;;;;;;18.14;92.71;100118.31;3583775;39;20368;-50
2021/07/05 04:23:40;;;;;;;20.48;18.30;;;;;;;18.16;93.79;100124.31;3583465;39;20068;-50
2021/07/05 04:26:07;;;;;;;20.60;18.05;;;;;;;18.39;93.39;100122.22;3583474;39;20134;-49
2021/07/05 04:28:35;;;;;;;20.90;18.75;;;;;;;17.85;96.54;100121.31;3583339;39;20158;-47
2021/07/05 04:31:02;;;;;;;19.80;18.00;;;;;;;18.09;95.87;100113.19;3583662;39;20502;-48
2021/07/05 04:33:29;;;;;;;20.10;18.20;;;;;;;17.97;96.55;100111.63;3583445;39;20053;-52
2021/07/05 04:35:57;;;;;;;20.13;18.05;;;;;;;18.19;95.12;100119.94;3583511;39;20084;-54
2021/07/05 04:38:24;;;;;;;20.23;18.23;;;;;;;18.66;90.97;100113.16;3583547;39;20470;-52
2021/07/05 04:40:52;;;;;;;20.80;18.52;;;;;;;18.48;91.38;100114.31;3583044;39;20096;-48
2021/07/05 04:43:19;;;;;;;20.45;18.45;;;;;;;18.81;89.37;100110.34;3583498;39;20068;-50
2021/07/05 04:45:46;;;;;;;21.55;19.35;;;;;;;18.72;89.56;100113.09;3583794;39;20357;-51
2021/07/05 04:48:14;;;;;;;21.33;19.15;;;;;;;18.45;90.58;100114.38;3583469;39;20091;-48
2021/07/05 04:50:41;;;;;;;19.80;17.88;;;;;;;18.55;91.65;100110.75;3583879;39;20545;-48
2021/07/05 04:53:08;;;;;;;19.58;17.67;;;;;;;18.64;89.83;100108.91;3583527;39;20766;-48
2021/07/05 04:55:40;;;;;;;20.80;18.70;;;;;;;19.00;87.43;100116.06;3583541;39;20051;-52
2021/07/05 04:58:07;;;;;;;20.48;18.33;;;;;;;18.88;88.94;100110.25;3583186;39;20068;-50
2021/07/05 05:00:35;;;;;;;20.38;18.25;;;;;;;18.90;88.59;100117.09;3583455;39;20092;-47
2021/07/05 05:03:05;;;;;;;20.70;17.65;;;;;;;18.90;89.08;100108.47;3583349;39;20075;-47
2021/07/05 05:05:33;;;;;;;18.80;16.98;;;;;;;19.01;89.64;100115.19;3583720;39;20357;-50
2021/07/05 05:08:05;;;;;;;18.42;16.63;;;;;;;19.48;87.18;100120.34;3584998;39;20413;-50
2021/07/05 05:10:32;;;;;;;19.25;17.45;;;;;;;19.75;84.76;100119.81;3584987;39;20097;-51
2021/07/05 05:12:59;;;;;;;22.40;17.45;;;;;;;19.46;85.98;100120.41;3585185;39;20407;-52
2021/07/05 05:15:26;;;;;;;17.60;15.90;;;;;;;19.82;83.18;100116.19;3584874;39;20044;-49
2021/07/05 05:17:53;;;;;;;19.13;17.33;;;;;;;19.66;83.96;100117.41;3584851;39;20484;-56
2021/07/05 05:20:22;;;;;;;18.77;16.85;;;;;;;19.85;84.65;100115.28;3585205;39;20061;-50
2021/07/05 05:22:50;;;;;;;23.30;18.00;;;;;;;19.83;84.88;100122.25;3585033;39;20072;-48
2021/07/05 05:25:18;;;;;;;19.67;17.67;;;;;;;19.93;84.98;100122.91;3584801;39;20539;-51
2021/07/05 05:27:47;;;;;;;19.00;17.08;;;;;;;20.25;81.95;100119.59;3584494;39;20073;-54
2021/07/05 05:30:16;;;;;;;18.52;16.63;;;;;;;20.01;83.22;100123.56;3584971;39;20143;-48
2021/07/05 05:32:45;;;;;;;27.63;18.23;;;;;;;20.32;83.48;100131.53;3585214;39;20353;-51
2021/07/05 05:35:15;;;;;;;18.90;16.95;;;;;;;20.31;83.60;100129.84;3584815;39;20082;-47
2021/07/05 05:37:42;;;;;;;19.73;17.73;;;;;;;19.89;85.00;100136.88;3584751;39;20076;-47
2021/07/05 05:40:10;;;;;;;18.70;16.75;;;;;;;20.34;83.22;100141.03;3584443;39;20321;-49
2021/07/05 05:42:37;;;;;;;18.77;16.88;;;;;;;20.61;82.14;100143.88;3584753;39;20104;-53
2021/07/05 05:45:05;;;;;;;19.23;17.33;;;;;;;20.42;83.00;100142.59;3584427;39;20122;-51
2021/07/05 05:47:32;;;;;;;18.20;16.38;;;;;;;20.47;85.26;100148.53;3584363;39;20073;-52
2021/07/05 05:49:59;;;;;;;18.02;15.98;;;;;;;20.51;81.93;100150.19;3584530;39;20118;-49
2021/07/05 05:52:26;;;;;;;18.77;16.30;;;;;;;20.74;81.63;100149.66;3584968;39;20100;-49
2021/07/05 05:54:53;;;;;;;18.92;16.05;;;;;;;20.66;81.92;100141.16;3584528;39;20299;-48
2021/07/05 05:57:30;;;;;;;20.00;16.33;;;;;;;20.75;81.57;100148.75;3584877;39;20059;-50
2021/07/05 05:59:59;;;;;;;17.63;15.82;;;;;;;20.53;83.11;100140.63;3584758;39;20092;-52
2021/07/05 06:02:27;;;;;;;17.45;15.73;;;;;;;20.82;82.13;100142.50;3585405;39;20049;-50
2021/07/05 06:04:54;;;;;;;17.23;15.13;;;;;;;20.75;82.05;100140.94;3586496;39;20056;-50
2021/07/05 06:07:21;;;;;;;15.73;14.10;;;;;;;20.82;82.03;100148.56;3584554;39;20048;-51
2021/07/05 06:09:49;;;;;;;17.35;15.55;;;;;;;21.06;81.47;100148.81;3584402;39;20417;-50
2021/07/05 06:12:18;;;;;;;17.40;14.32;;;;;;;21.17;79.27;100143.31;3584793;39;20064;-50
2021/07/05 06:14:45;;;;;;;15.35;13.57;;;;;;;21.43;78.77;100146.13;3584681;39;20780;-50
2021/07/05 06:17:12;;;;;;;14.57;13.20;;;;;;;21.21;81.44;100143.19;3583939;39;20047;-49
2021/07/05 06:19:40;;;;;;;17.02;15.32;;;;;;;21.57;78.64;100146.59;3584214;39;20057;-49
2021/07/05 06:22:16;;;;;;;14.70;13.15;;;;;;;21.59;77.22;100154.38;3584770;39;20086;-50
2021/07/05 06:24:47;;;;;;;15.77;13.65;;;;;;;21.63;77.79;100157.72;3584750;39;20057;-48
2021/07/05 06:27:15;;;;;;;13.63;12.40;;;;;;;21.52;77.59;100151.06;3584439;39;20367;-48
2021/07/05 06:29:42;;;;;;;14.43;13.00;;;;;;;21.31;77.77;100155.13;3584385;39;20049;-48
2021/07/05 06:32:10;;;;;;;15.90;13.55;;;;;;;21.61;78.27;100150.81;3584240;39;20427;-48
2021/07/05 06:34:39;;;;;;;13.80;12.50;;;;;;;21.56;79.93;100157.91;3584483;39;20433;-50
2021/07/05 06:37:07;;;;;;;14.05;12.68;;;;;;;21.97;78.69;100163.69;3584205;39;20048;-51
2021/07/05 06:39:34;;;;;;;13.27;11.95;;;;;;;21.72;78.74;100162.69;3573259;39;20612;-50
2021/07/05 06:42:02;;;;;;;13.27;11.98;;;;;;;22.16;77.92;100171.00;3568995;40;20126;-52
2021/07/05 06:44:29;;;;;;;13.52;12.32;;;;;;;22.20;77.79;100173.47;3569681;40;20435;-52
2021/07/05 06:46:56;;;;;;;14.05;12.75;;;;;;;21.50;77.99;100176.31;3572163;40;20048;-49
2021/07/05 06:49:23;;;;;;;12.88;11.40;;;;;;;21.86;78.24;100179.66;3575909;40;20076;-50
2021/07/05 06:51:50;;;;;;;14.07;11.88;;;;;;;21.54;79.78;100175.34;3574281;40;20115;-52
2021/07/05 06:54:17;;;;;;;12.88;10.95;;;;;;;;;;3574828;40;20069;-53
2021/07/05 06:56:44;;;;;;;14.05;12.07;;;;;;;21.38;79.22;100171.44;3574655;40;20049;-52
2021/07/05 06:59:11;;;;;;;13.65;12.07;;;;;;;21.49;78.83;100177.22;3575131;40;20354;-48
2021/07/05 07:01:38;;;;;;;13.02;11.77;;;;;;;21.29;81.38;100180.31;3574922;40;20061;-51
2021/07/05 07:04:06;;;;;;;12.10;10.90;;;;;;;21.20;81.36;100188.38;3574364;40;20613;-51
2021/07/05 07:06:33;;;;;;;12.23;11.10;;;;;;;20.87;81.61;100191.84;3574222;40;20068;-51
2021/07/05 07:09:00;;;;;;;12.52;11.23;;;;;;;20.90;82.04;100186.56;3574164;40;20107;-50
2021/07/05 07:11:28;;;;;;;13.05;10.65;;;;;;;21.06;81.18;100188.72;3574626;40;20081;-50
2021/07/05 07:14:00;;;;;;;13.80;10.38;;;;;;;21.08;80.71;100194.78;3574163;40;20045;-53
2021/07/05 07:16:29;;;;;;;12.38;9.80;;;;;;;21.04;82.48;100197.50;3574255;40;20048;-52
2021/07/05 07:19:00;;;;;;;11.80;10.60;;;;;;;20.97;82.24;100201.13;3573902;40;20410;-49
2021/07/05 07:21:27;;;;;;;10.35;9.18;;;;;;;20.82;82.57;100198.00;3574210;40;20049;-49
2021/07/05 07:23:54;;;;;;;10.70;9.63;;;;;;;20.73;82.33;100202.59;3574319;40;20415;-49
2021/07/05 07:26:22;;;;;;;11.85;10.60;;;;;;;20.75;82.77;100204.28;3574007;40;20048;-49
2021/07/05 07:28:53;;;;;;;11.10;9.73;;;;;;;20.62;83.47;100197.66;3573524;40;20463;-51
2021/07/05 07:31:20;;;;;;;73.95;54.78;;;;;;;20.63;84.85;100201.94;3574124;40;20067;-47
2021/07/05 07:33:48;;;;;;;17.60;15.18;;;;;;;20.62;86.04;100192.44;3573953;40;20061;-51
2021/07/05 07:36:15;;;;;;;36.08;19.63;;;;;;;20.52;89.64;100194.41;3574210;40;20791;-49
2021/07/05 07:38:47;;;;;;;30.63;18.65;;;;;;;20.05;94.55;100205.81;3573952;40;20061;-49
2021/07/05 07:41:21;;;;;;;15.32;12.13;;;;;;;20.08;94.14;100205.75;3572811;40;20383;-48
2021/07/05 07:43:49;;;;;;;12.35;11.05;;;;;;;19.96;94.47;100219.00;3573810;40;20096;-48
2021/07/05 07:46:16;;;;;;;12.38;10.90;;;;;;;19.94;94.26;100220.78;3574012;40;20414;-50
2021/07/05 07:48:44;;;;;;;10.80;9.70;;;;;;;19.88;94.12;100220.91;3573804;40;20064;-48
2021/07/05 07:51:11;;;;;;;10.77;9.70;;;;;;;19.72;91.98;100225.53;3573689;40;20100;-49
2021/07/05 07:53:38;;;;;;;9.90;8.90;;;;;;;19.68;93.77;100229.06;3574060;40;20124;-49
2021/07/05 07:56:05;;;;;;;13.10;11.75;;;;;;;19.48;97.46;100216.44;3574105;40;20102;-50
2021/07/05 07:58:32;;;;;;;14.25;10.40;;;;;;;19.43;98.96;100216.53;3573703;40;20463;-49
2021/07/05 08:00:59;;;;;;;12.35;9.98;;;;;;;19.32;98.25;100221.06;3574329;40;20053;-53
2021/07/05 08:03:29;;;;;;;16.25;11.85;;;;;;;19.41;100.00;100218.28;3574346;40;20059;-48
2021/07/05 08:05:56;;;;;;;10.90;9.80;;;;;;;19.41;99.93;100223.47;3574803;40;20068;-51
2021/07/05 08:08:23;;;;;;;12.77;11.32;;;;;;;19.12;100.00;100223.13;3573939;40;20059;-51
2021/07/05 08:10:50;;;;;;;14.50;12.55;;;;;;;18.81;100.00;100221.91;3573658;40;20078;-49
2021/07/05 08:13:18;;;;;;;16.00;13.70;;;;;;;18.96;100.00;100227.72;3573652;40;20117;-56
2021/07/05 08:15:48;;;;;;;14.98;13.00;;;;;;;18.94;100.00;100219.09;3573998;40;20399;-49
2021/07/05 08:18:15;;;;;;;13.55;12.10;;;;;;;19.04;100.00;100216.34;3573965;40;20071;-47
2021/07/05 08:20:42;;;;;;;13.52;12.20;;;;;;;18.99;100.00;100225.06;3573610;40;20057;-51
2021/07/05 08:23:09;;;;;;;13.63;10.70;;;;;;;19.32;100.00;100213.28;3573586;40;20429;-53
2021/07/05 08:25:36;;;;;;;13.10;11.73;;;;;;;19.27;100.00;100226.34;3580881;39;20100;-51
2021/07/05 08:28:04;;;;;;;14.18;11.82;;;;;;;19.37;100.00;100220.97;3583323;39;20085;-53
2021/07/05 08:30:31;;;;;;;13.10;11.70;;;;;;;19.19;100.00;100228.19;3583675;39;20462;-50
2021/07/05 08:32:58;;;;;;;15.50;12.93;;;;;;;18.93;100.00;100220.84;3584059;39;20080;-51
2021/07/05 08:35:29;;;;;;;14.23;12.82;;;;;;;19.31;100.00;100233.16;3584095;39;20048;-49
2021/07/05 08:37:57;;;;;;;17.40;13.07;;;;;;;18.97;100.00;100222.50;3583791;39;20111;-51
2021/07/05 08:40:24;;;;;;;13.88;12.38;;;;;;;19.17;100.00;100229.94;3584192;39;20120;-48
2021/07/05 08:42:54;;;;;;;18.13;13.27;;;;;;;19.50;100.00;100227.63;3585386;39;20104;-48
2021/07/05 08:45:22;;;;;;;15.07;13.27;;;;;;;19.50;100.00;100228.50;3585422;39;20378;-50
2021/07/05 08:47:51;;;;;;;15.50;12.93;;;;;;;19.30;100.00;100223.66;3585091;39;20068;-49
2021/07/05 08:50:21;;;;;;;16.73;12.95;;;;;;;19.70;100.00;100229.91;3585507;39;20052;-51
2021/07/05 08:52:48;;;;;;;16.27;13.35;;;;;;;19.84;100.00;100233.94;3585230;39;20079;-49
2021/07/05 08:55:18;;;;;;;16.48;13.88;;;;;;;19.84;100.00;100227.91;3585097;39;20073;-55
2021/07/05 08:57:46;;;;;;;19.48;12.73;;;;;;;19.88;100.00;100236.50;3585839;39;20072;-53
2021/07/05 09:00:18;;;;;;;15.18;13.10;;;;;;;20.09;100.00;100239.50;3585656;39;20093;-48
2021/07/05 09:02:47;;;;;;;14.50;12.93;;;;;;;19.74;100.00;100241.97;3585128;39;20052;-53
2021/07/05 09:05:16;;;;;;;21.60;13.70;;;;;;;19.85;100.00;100229.59;3585178;39;20064;-50
2021/07/05 09:08:09;;;;;;;15.45;13.63;;;;;;;19.62;100.00;100226.59;3584975;39;20072;-47
2021/07/05 09:10:43;;;;;;;17.02;13.52;;;;;;;19.52;100.00;100215.50;3571819;39;20105;-47
2021/07/05 09:13:14;;;;;;;14.70;12.65;;;;;;;19.53;100.00;100233.63;3574639;40;20088;-47
2021/07/05 09:15:47;;;;;;;16.90;13.77;;;;;;;19.10;100.00;100222.31;3574755;40;20320;-52
2021/07/05 09:18:24;;;;;;;16.05;13.70;;;;;;;19.63;100.00;100231.75;3574808;40;20415;-49
2021/07/05 09:20:52;;;;;;;20.33;14.65;;;;;;;19.23;100.00;100223.81;3574802;40;21075;-48
2021/07/05 09:23:19;;;;;;;15.60;14.00;;;;;;;19.53;100.00;100233.63;3574601;40;20369;-48
2021/07/05 09:25:49;;;;;;;18.98;15.02;;;;;;;19.74;100.00;100235.03;3574514;40;20101;-51
2021/07/05 09:28:17;;;;;;;15.32;13.75;;;;;;;20.49;100.00;100232.63;3574702;40;20084;-51
2021/07/05 09:30:48;;;;;;;14.38;12.85;;;;;;;20.66;100.00;100242.63;3574978;40;20060;-52
2021/07/05 09:33:25;;;;;;;16.02;14.32;;;;;;;20.29;100.00;100243.41;3574945;40;20096;-50
2021/07/05 09:35:59;;;;;;;14.45;12.95;;;;;;;21.07;99.64;100236.44;3574648;40;20057;-49
2021/07/05 09:38:34;;;;;;;19.38;14.00;;;;;;;21.03;100.00;100250.44;3574783;40;20114;-49
2021/07/05 09:41:33;;;;;;;15.25;12.98;;;;;;;21.04;100.00;100242.59;3574592;40;20072;-48
2021/07/05 09:44:03;;;;;;;13.18;11.82;;;;;;;21.32;99.91;100240.19;3572073;40;20120;-54
2021/07/05 09:46:38;;;;;;;15.23;11.85;;;;;;;21.66;97.93;100244.50;3574712;40;20402;-52
2021/07/05 09:49:10;;;;;;;12.93;11.65;;;;;;;21.62;97.87;100250.69;3574628;40;20041;-52
2021/07/05 09:51:41;;;;;;;11.05;9.95;;;;;;;21.57;96.39;100248.22;3574085;40;20134;-50
2021/07/05 09:54:08;;;;;;;8.32;7.43;;;;;;;21.41;96.00;100254.72;3574711;40;20060;-49
2021/07/05 09:56:36;;;;;;;7.90;6.97;;;;;;;21.45;93.76;100253.75;3574981;40;20131;-48
2021/07/05 09:59:30;;;;;;;8.25;7.45;;;;;;;21.64;97.04;100264.56;3575055;40;20093;-55
2021/07/05 10:01:59;;;;;;;8.23;7.22;;;;;;;21.45;96.11;100253.75;3572944;40;20033;-51
2021/07/05 10:04:36;;;;;;;7.07;6.18;;;;;;;21.76;93.17;100253.78;3574923;40;20053;-51
2021/07/05 10:07:05;;;;;;;6.78;6.15;;;;;;;21.85;93.32;100248.31;3574769;40;20056;-52
2021/07/05 10:09:50;;;;;;;6.85;6.22;;;;;;;22.19;90.63;100251.75;3574481;40;20407;-47
2021/07/05 10:12:20;;;;;;;9.32;6.28;;;;;;;21.90;93.68;100252.53;3575251;40;20073;-49
2021/07/05 10:15:09;;;;;;;8.57;6.25;;;;;;;22.12;88.44;100251.06;3574766;40;20049;-49
2021/07/05 10:17:42;;;;;;;6.18;5.68;;;;;;;21.97;88.07;100247.13;3574709;40;20104;-50
2021/07/05 10:20:13;;;;;;;5.95;5.45;;;;;;;22.43;87.69;100256.25;3574823;40;20065;-48
2021/07/05 10:22:42;;;;;;;5.55;5.05;;;;;;;22.73;84.76;100249.22;3574723;40;20093;-51
2021/07/05 10:25:10;;;;;;;6.60;5.53;;;;;;;22.35;90.45;100247.78;3574758;40;20066;-48
2021/07/05 10:27:38;;;;;;;6.72;5.28;;;;;;;22.60;83.25;100243.53;3574535;40;20466;-50
2021/07/05 10:30:10;;;;;;;6.43;5.43;;;;;;;22.93;84.06;100242.56;3574530;40;20068;-50
2021/07/05 10:32:38;;;;;;;6.32;5.63;;;;;;;22.34;87.83;100236.50;3574742;40;20100;-49
2021/07/05 10:35:07;;;;;;;5.15;4.70;;;;;;;24.02;77.56;100247.50;3574629;40;20385;-50
2021/07/05 10:37:43;;;;;;;5.53;4.82;;;;;;;24.42;72.20;100238.19;3574507;40;20057;-48
2021/07/05 10:40:12;;;;;;;6.85;5.93;;;;;;;23.81;81.44;100233.44;3574140;40;20115;-54
2021/07/05 10:42:42;;;;;;;5.55;5.05;;;;;;;23.50;79.30;100237.13;3574526;40;20076;-48
2021/07/05 10:45:12;;;;;;;5.70;4.97;;;;;;;23.19;84.41;100239.06;3574325;40;20053;-51
2021/07/05 10:47:41;;;;;;;7.07;5.57;;;;;;;23.38;84.09;100234.91;3574390;40;20061;-53
2021/07/05 10:50:29;;;;;;;5.72;5.13;;;;;;;23.69;79.20;100244.34;3574395;40;20056;-50
2021/07/05 10:52:56;;;;;;;6.32;5.78;;;;;;;23.25;80.63;100242.34;3574638;40;20092;-50
2021/07/05 10:55:42;;;;;;;5.43;4.93;;;;;;;23.61;81.16;100241.94;3574721;40;20055;-57
2021/07/05 10:58:19;;;;;;;5.70;5.20;;;;;;;24.50;72.59;100247.44;3574827;40;20121;-50
2021/07/05 11:00:52;;;;;;;5.78;5.18;;;;;;;23.97;73.93;100238.97;3574130;40;20065;-51
2021/07/05 11:03:38;;;;;;;7.22;5.05;;;;;;;23.75;75.95;100251.97;3573988;40;20064;-48
2021/07/05 11:06:22;;;;;;;11.15;6.05;;;;;;;24.22;72.95;100254.59;3574261;40;20080;-48
2021/07/05 11:08:51;;;;;;;5.85;5.03;;;;;;;24.41;76.72;100257.41;3574081;40;20084;-48
2021/07/05 11:11:27;;;;;;;5.78;5.28;;;;;;;24.39;72.96;100255.69;3574489;40;20057;-48
2021/07/05 11:14:14;;;;;;;5.97;5.50;;;;;;;24.08;75.89;100248.13;3574172;40;20057;-50
2021/07/05 11:16:55;;;;;;;6.88;6.28;;;;;;;23.49;82.49;100240.63;3573996;40;20056;-50
2021/07/05 11:20:11;;;;;;;6.57;5.97;;;;;;;23.88;80.93;100243.63;3574101;40;20069;-49